CST,Max TemperatureF,Mean TemperatureF,Min TemperatureF,Max Dew PointF,MeanDew PointF,Min DewpointF,Max Humidity, Mean Humidity, Min Humidity, Max Sea Level PressureIn, Mean Sea Level PressureIn, Min Sea Level PressureIn, Max VisibilityMiles, Mean VisibilityMiles, Min VisibilityMiles, Max Wind SpeedMPH, Mean Wind SpeedMPH, Max Gust SpeedMPH,PrecipitationIn, CloudCover, Events, WindDirDegrees
2012-12-1,79,71,63,64,62,59,90,72,54,30.15,30.08,30.00,10,10,10,21,12,29,0.00,6,,178
2012-12-2,80,73,66,63,61,58,87,68,48,30.18,30.10,30.05,10,10,10,20,12,26,0.00,3,,187
2012-12-3,79,73,66,66,62,59,87,71,54,30.08,30.03,29.95,10,10,2,18,12,25,0.00,5,,180
2012-12-4,76,66,55,64,57,34,93,69,44,30.22,30.11,30.03,10,10,9,18,9,23,0.01,5,,254
2012-12-5,63,55,47,49,47,38,86,65,43,30.25,30.17,30.08,10,10,10,12,5,15,0.00,6,,23
2012-12-6,69,58,47,54,52,45,100,78,55,30.06,29.98,29.88,10,7,1,15,8,20,0.00,5,,161
2012-12-7,71,64,56,61,58,54,93,77,61,29.91,29.86,29.81,10,8,4,16,8,22,0.00,7,,191
2012-12-8,73,67,60,63,61,58,97,85,73,29.93,29.87,29.81,10,5,1,13,3,15,T,6,Rain,289
2012-12-9,77,64,50,64,59,40,93,79,64,29.94,29.83,29.76,10,8,1,22,12,26,0.58,6,Rain-Thunderstorm,221
2012-12-10,50,41,31,34,21,15,66,53,39,30.14,30.08,29.96,10,10,10,25,12,36,0.00,2,,330
2012-12-11,51,39,27,23,20,16,75,50,24,30.26,30.19,30.12,10,10,10,8,3,14,0.00,0,,45
2012-12-12,56,42,27,27,19,11,81,49,16,30.37,30.30,30.26,10,10,10,9,3,10,0.00,0,,138
2012-12-13,62,48,33,29,25,22,69,46,23,30.37,30.30,30.22,10,10,10,14,6,16,0.00,0,,144
2012-12-14,60,52,44,55,42,27,93,67,41,30.22,30.07,29.92,10,9,2,20,10,25,0.05,7,Rain,150
2012-12-15,70,64,57,63,54,38,93,62,31,29.95,29.90,29.86,10,7,2,17,7,24,0.38,5,Rain-Thunderstorm,210
2012-12-16,63,57,50,53,50,46,96,78,60,29.86,29.80,29.73,10,9,1,20,5,23,0.13,2,Rain,199
2012-12-17,62,53,43,50,41,36,93,66,39,29.91,29.84,29.76,10,9,2,18,7,22,0.00,0,,244
2012-12-18,77,59,40,50,39,35,82,54,25,29.90,29.85,29.80,10,10,10,21,10,24,0.00,0,,183
2012-12-19,77,68,58,64,60,53,90,75,60,29.83,29.75,29.62,10,10,6,33,17,49,0.14,6,Rain-Thunderstorm,187
2012-12-20,60,48,36,36,20,10,54,37,19,30.42,30.21,29.81,10,10,6,31,16,39,0.01,1,,306
2012-12-21,63,45,26,27,19,12,81,48,15,30.50,30.41,30.35,10,10,10,10,4,13,0.00,0,,218
2012-12-22,65,48,31,47,33,21,69,47,25,30.34,30.24,30.09,10,10,10,22,9,25,0.00,1,,191
2012-12-23,70,60,49,57,51,36,78,65,51,30.06,29.94,29.83,10,10,10,18,9,25,0.00,4,,218
2012-12-24,62,49,35,37,31,28,75,52,29,30.02,29.91,29.81,10,10,9,13,5,16,0.00,0,,354
2012-12-25,54,43,31,49,37,26,92,76,59,30.06,29.79,29.59,10,6,2,31,14,43,0.98,8,Rain-Snow-Thunderstorm,346
2012-12-26,34,30,25,33,24,19,100,85,69,30.28,30.19,30.08,10,10,10,24,9,32,0.00,4,,330
2012-12-27,43,34,25,43,32,23,100,88,76,30.15,30.03,29.92,10,8,3,15,6,20,0.08,6,Rain,110
2012-12-28,42,38,33,43,37,26,100,85,70,30.21,29.97,29.86,10,8,2,21,10,29,0.19,8,Rain,350
2012-12-29,46,37,27,25,21,17,78,56,33,30.48,30.38,30.22,10,10,10,14,6,22,0.00,0,,319
2012-12-30,47,36,25,27,23,20,85,61,37,30.51,30.41,30.29,10,10,10,15,5,18,0.00,1,,137
2012-12-31,51,47,42,52,45,28,100,77,53,30.27,30.07,29.99,10,5,1,21,9,26,0.35,8,Rain,156